createdAt,value
2022-09-18T00:00:40.890Z,16.47
2022-09-18T00:03:07.337Z,16.48
2022-09-18T00:05:35.509Z,16.51
2022-09-18T00:08:01.957Z,16.35
2022-09-18T00:10:28.749Z,16.54
2022-09-18T00:12:55.140Z,16.60
2022-09-18T00:15:21.565Z,16.62
2022-09-18T00:17:47.960Z,16.56
2022-09-18T00:20:14.412Z,16.65
2022-09-18T00:22:40.873Z,16.66
2022-09-18T00:25:07.524Z,16.60
2022-09-18T00:27:33.960Z,16.57
2022-09-18T00:30:00.346Z,16.56
2022-09-18T00:32:26.712Z,16.61
2022-09-18T00:34:53.131Z,16.63
2022-09-18T00:37:19.505Z,16.59
2022-09-18T00:39:45.902Z,16.63
2022-09-18T00:42:12.292Z,16.52
2022-09-18T00:44:38.724Z,16.67
2022-09-18T00:47:07.440Z,16.62
2022-09-18T00:49:33.857Z,16.60
2022-09-18T00:52:01.646Z,16.56
2022-09-18T00:54:29.362Z,16.55
2022-09-18T00:56:57.272Z,16.51
2022-09-18T00:59:24.627Z,16.40
2022-09-18T01:01:51.213Z,16.54
2022-09-18T01:04:17.624Z,16.62
2022-09-18T01:06:47.021Z,16.48
2022-09-18T01:09:32.286Z,16.54
2022-09-18T01:12:04.925Z,16.56
2022-09-18T01:14:46.627Z,16.45
2022-09-18T01:17:15.675Z,16.53
2022-09-18T01:20:01.286Z,16.48
2022-09-18T01:22:37.100Z,16.41
2022-09-18T01:25:03.420Z,16.46
2022-09-18T01:27:40.856Z,16.49
2022-09-18T01:30:07.853Z,16.39
2022-09-18T01:32:52.889Z,16.40
2022-09-18T01:35:40.706Z,16.35
2022-09-18T01:38:09.040Z,16.33
2022-09-18T01:40:36.731Z,16.26
2022-09-18T01:43:05.122Z,16.12
2022-09-18T01:45:35.829Z,16.21
2022-09-18T01:48:08.509Z,16.25
2022-09-18T01:50:36.194Z,16.16
2022-09-18T01:53:12.681Z,16.13
2022-09-18T01:55:39.091Z,16.03
2022-09-18T01:58:09.279Z,15.89
2022-09-18T02:03:29.704Z,15.93
2022-09-18T02:06:00.531Z,15.95
2022-09-18T02:08:31.887Z,15.64
2022-09-18T02:10:59.838Z,15.72
2022-09-18T02:13:27.351Z,15.82
2022-09-18T02:15:53.902Z,15.79
2022-09-18T02:18:24.730Z,15.77
2022-09-18T02:20:51.115Z,15.86
2022-09-18T02:23:17.491Z,15.89
2022-09-18T02:25:45.743Z,15.75
2022-09-18T02:28:12.453Z,15.67
2022-09-18T02:30:39.320Z,15.64
2022-09-18T02:33:22.132Z,15.64
2022-09-18T02:35:48.560Z,15.62
2022-09-18T02:38:22.028Z,15.63
2022-09-18T02:40:48.350Z,15.59
2022-09-18T02:43:14.739Z,15.61
2022-09-18T02:45:53.451Z,15.61
2022-09-18T02:48:19.794Z,15.61
2022-09-18T02:50:57.941Z,15.37
2022-09-18T02:53:25.692Z,15.53
2022-09-18T02:56:15.395Z,15.33
2022-09-18T02:58:47.918Z,15.46
2022-09-18T03:01:14.400Z,15.29
2022-09-18T03:03:40.990Z,15.26
2022-09-18T03:06:07.553Z,15.31
2022-09-18T03:08:34.041Z,15.33
2022-09-18T03:11:00.556Z,15.12
2022-09-18T03:13:27.033Z,15.16
2022-09-18T03:15:55.119Z,14.87
2022-09-18T03:18:21.925Z,15.03
2022-09-18T03:20:49.520Z,15.01
2022-09-18T03:23:16.559Z,14.96
2022-09-18T03:25:43.143Z,15.04
2022-09-18T03:28:09.564Z,15.05
2022-09-18T03:30:36.190Z,15.02
2022-09-18T03:33:02.674Z,14.93
2022-09-18T03:35:29.218Z,14.98
2022-09-18T03:37:56.119Z,14.95
2022-09-18T03:40:22.634Z,14.97
2022-09-18T03:42:49.147Z,14.85
2022-09-18T03:45:15.575Z,14.77
2022-09-18T03:47:42.061Z,14.82
2022-09-18T03:50:08.677Z,14.72
2022-09-18T03:52:35.081Z,14.70
2022-09-18T03:55:01.739Z,14.80
2022-09-18T03:57:28.154Z,14.77
2022-09-18T03:59:54.596Z,14.77
2022-09-18T04:02:21.079Z,14.80
2022-09-18T04:04:47.468Z,14.72
2022-09-18T04:07:13.874Z,14.66
2022-09-18T04:09:40.719Z,14.16
2022-09-18T04:12:07.256Z,14.60
2022-09-18T04:14:33.879Z,14.65
2022-09-18T04:17:00.528Z,14.72
2022-09-18T04:19:26.903Z,14.66
2022-09-18T04:21:53.300Z,14.56
2022-09-18T04:24:19.681Z,14.11
2022-09-18T04:26:47.076Z,14.61
2022-09-18T04:29:13.479Z,14.75
2022-09-18T04:31:39.989Z,14.70
2022-09-18T04:34:07.190Z,14.87
2022-09-18T04:36:33.588Z,14.83
2022-09-18T04:39:00.001Z,14.81
2022-09-18T04:41:26.502Z,14.82
2022-09-18T04:43:52.883Z,14.70
2022-09-18T04:46:19.314Z,14.79
2022-09-18T04:48:45.860Z,14.78
2022-09-18T04:51:12.265Z,14.86
2022-09-18T04:53:39.608Z,14.92
2022-09-18T04:56:06.073Z,14.95
2022-09-18T04:58:32.504Z,15.05
2022-09-18T05:00:58.917Z,15.07
2022-09-18T05:03:25.406Z,15.10
2022-09-18T05:05:51.817Z,15.17
2022-09-18T05:08:18.221Z,15.22
2022-09-18T05:10:44.602Z,15.20
2022-09-18T05:13:11.011Z,15.32
2022-09-18T05:15:37.639Z,15.37
2022-09-18T05:18:09.068Z,15.38
2022-09-18T05:20:37.630Z,15.35
2022-09-18T05:23:04.096Z,15.36
2022-09-18T05:25:31.080Z,15.41
2022-09-18T05:27:58.196Z,15.31
2022-09-18T05:30:24.642Z,15.34
2022-09-18T05:32:59.053Z,15.32
2022-09-18T05:35:26.135Z,15.41
2022-09-18T05:37:52.986Z,15.42
2022-09-18T05:40:20.025Z,15.41
2022-09-18T05:42:46.951Z,15.56
2022-09-18T05:45:14.081Z,15.61
2022-09-18T05:47:40.788Z,15.81
2022-09-18T05:50:07.668Z,16.21
2022-09-18T05:52:34.043Z,16.80
2022-09-18T05:55:02.861Z,17.49
2022-09-18T05:57:29.254Z,17.87
2022-09-18T05:59:55.740Z,18.25
2022-09-18T06:02:22.174Z,18.97
2022-09-18T06:04:48.707Z,19.77
2022-09-18T06:07:16.227Z,20.22
2022-09-18T06:09:42.665Z,20.63
2022-09-18T06:12:09.128Z,20.80
2022-09-18T06:14:35.512Z,20.96
2022-09-18T06:17:01.915Z,20.88
2022-09-18T06:19:28.576Z,21.28
2022-09-18T06:21:54.993Z,21.81
2022-09-18T06:24:21.409Z,21.71
2022-09-18T06:26:48.733Z,21.78
2022-09-18T06:29:15.168Z,21.93
2022-09-18T06:31:41.687Z,22.05
2022-09-18T06:34:08.131Z,22.49
2022-09-18T06:36:34.600Z,23.12
2022-09-18T06:39:01.061Z,23.10
2022-09-18T06:41:27.586Z,23.71
2022-09-18T06:43:54.050Z,23.72
2022-09-18T06:46:20.478Z,23.95
2022-09-18T06:48:48.576Z,24.02
2022-09-18T06:51:15.044Z,24.56
2022-09-18T06:53:41.436Z,24.70
2022-09-18T06:56:07.826Z,24.40
2022-09-18T06:58:34.228Z,24.83
2022-09-18T07:01:01.070Z,25.19
2022-09-18T07:03:27.551Z,25.30
2022-09-18T07:05:53.959Z,25.63
2022-09-18T07:08:21.527Z,25.49
2022-09-18T07:10:48.012Z,25.66
2022-09-18T07:13:14.388Z,25.56
2022-09-18T07:15:40.826Z,25.29
2022-09-18T07:18:08.127Z,24.87
2022-09-18T07:20:34.540Z,25.17
2022-09-18T07:23:01.381Z,24.69
2022-09-18T07:25:28.069Z,23.95
2022-09-18T07:27:54.459Z,23.57
2022-09-18T07:30:21.057Z,22.49
2022-09-18T07:32:47.719Z,22.25
2022-09-18T07:35:14.188Z,21.93
2022-09-18T07:37:40.659Z,21.89
2022-09-18T07:40:07.427Z,21.78
2022-09-18T07:42:33.937Z,21.29
2022-09-18T07:45:00.369Z,21.54
2022-09-18T07:47:27.948Z,22.21
2022-09-18T07:49:54.990Z,23.39
2022-09-18T07:52:21.438Z,23.69
2022-09-18T07:54:47.888Z,24.21
2022-09-18T07:57:14.340Z,24.92
2022-09-18T07:59:40.745Z,25.06
2022-09-18T08:02:07.254Z,25.13
2022-09-18T08:04:33.910Z,25.54
2022-09-18T08:07:03.908Z,26.02
2022-09-18T08:09:30.366Z,26.24
2022-09-18T08:11:56.863Z,26.21
2022-09-18T08:14:28.013Z,26.48
2022-09-18T08:16:55.402Z,26.21
2022-09-18T08:19:21.831Z,24.94
2022-09-18T08:21:48.240Z,24.39
2022-09-18T08:24:17.617Z,23.39
2022-09-18T08:26:44.258Z,22.48
2022-09-18T08:29:10.664Z,21.75
2022-09-18T08:31:37.132Z,21.19
2022-09-18T08:34:03.648Z,21.24
2022-09-18T08:36:30.064Z,20.85
2022-09-18T08:38:56.875Z,20.46
2022-09-18T08:41:30.310Z,20.19
2022-09-18T08:44:04.214Z,20.25
2022-09-18T08:46:51.511Z,19.98
2022-09-18T08:49:36.985Z,19.58
2022-09-18T08:52:05.121Z,19.57
2022-09-18T08:54:41.082Z,19.83
2022-09-18T08:57:15.341Z,20.23
2022-09-18T08:59:43.949Z,20.22
2022-09-18T09:02:13.741Z,20.13
2022-09-18T09:04:40.223Z,19.91
2022-09-18T09:07:15.819Z,19.65
2022-09-18T09:09:44.568Z,19.83
2022-09-18T09:12:14.119Z,19.71
2022-09-18T09:14:56.518Z,19.63
2022-09-18T09:17:42.611Z,19.31
2022-09-18T09:20:13.815Z,19.37
2022-09-18T09:22:47.457Z,19.27
2022-09-18T09:25:13.831Z,19.30
2022-09-18T09:27:43.772Z,19.28
2022-09-18T09:30:14.631Z,19.45
2022-09-18T09:32:45.230Z,19.52
2022-09-18T09:35:14.421Z,19.63
2022-09-18T09:37:43.712Z,19.54
2022-09-18T09:40:12.876Z,19.77
2022-09-18T09:42:44.127Z,19.77
2022-09-18T09:45:14.997Z,19.45
2022-09-18T09:47:41.537Z,19.25
2022-09-18T09:50:17.421Z,19.26
2022-09-18T09:52:44.005Z,19.35
2022-09-18T09:55:13.569Z,19.32
2022-09-18T09:57:52.601Z,19.21
2022-09-18T10:00:19.547Z,19.25
2022-09-18T10:03:04.753Z,19.18
2022-09-18T10:05:42.883Z,19.16
2022-09-18T10:08:10.884Z,19.21
2022-09-18T10:10:49.390Z,19.29
2022-09-18T10:13:20.855Z,19.25
2022-09-18T10:15:50.033Z,19.39
2022-09-18T10:18:21.861Z,19.46
2022-09-18T10:20:48.373Z,19.39
2022-09-18T10:23:25.433Z,19.44
2022-09-18T10:25:56.042Z,19.41
2022-09-18T10:28:25.603Z,19.46
2022-09-18T10:31:05.313Z,19.61
2022-09-18T10:33:31.696Z,20.01
2022-09-18T10:36:08.926Z,20.34
2022-09-18T10:38:37.821Z,20.91
2022-09-18T10:41:11.242Z,21.39
2022-09-18T10:43:40.234Z,21.59
2022-09-18T10:46:07.127Z,21.95
2022-09-18T10:48:33.512Z,22.87
2022-09-18T10:51:00.494Z,23.52
2022-09-18T10:53:33.363Z,24.01
2022-09-18T10:56:04.927Z,23.64
2022-09-18T10:58:31.771Z,23.59
2022-09-18T11:01:01.969Z,23.53
2022-09-18T11:03:41.758Z,23.40
2022-09-18T11:06:18.877Z,23.35
2022-09-18T11:08:46.619Z,23.19
2022-09-18T11:11:19.858Z,22.76
2022-09-18T11:13:55.636Z,23.14
2022-09-18T11:16:22.976Z,23.86
2022-09-18T11:19:02.032Z,24.38
2022-09-18T11:21:31.696Z,25.00
2022-09-18T11:24:04.714Z,25.20
2022-09-18T11:26:31.342Z,25.13
2022-09-18T11:28:58.893Z,25.13
2022-09-18T11:31:25.417Z,24.64
2022-09-18T11:33:53.495Z,24.65
2022-09-18T11:36:27.009Z,25.01
2022-09-18T11:38:53.432Z,24.97
2022-09-18T11:41:34.218Z,23.99
2022-09-18T11:44:01.884Z,23.82
2022-09-18T11:46:35.652Z,24.10
2022-09-18T11:49:04.806Z,23.59
2022-09-18T11:51:47.318Z,23.29
2022-09-18T11:54:18.313Z,23.32
2022-09-18T11:56:45.482Z,23.33
2022-09-18T11:59:14.839Z,23.62
2022-09-18T12:01:42.246Z,23.76
2022-09-18T12:04:27.637Z,23.21
2022-09-18T12:07:09.893Z,23.32
2022-09-18T12:09:55.228Z,23.56
2022-09-18T12:12:23.968Z,24.13
2022-09-18T12:14:59.426Z,24.95
2022-09-18T12:17:28.942Z,24.78
2022-09-18T12:19:57.021Z,24.58
2022-09-18T12:22:26.468Z,24.43
2022-09-18T12:24:55.222Z,24.64
2022-09-18T12:27:31.411Z,24.76
2022-09-18T12:30:00.849Z,24.88
2022-09-18T12:32:30.284Z,25.42
2022-09-18T12:35:10.585Z,25.56
2022-09-18T12:37:46.537Z,25.50
2022-09-18T12:40:19.935Z,25.05
2022-09-18T12:42:55.686Z,24.83
2022-09-18T12:45:40.996Z,24.88
2022-09-18T12:48:11.181Z,25.02
2022-09-18T12:50:45.673Z,24.94
2022-09-18T12:53:18.272Z,24.80
2022-09-18T12:55:47.499Z,24.57
2022-09-18T12:58:32.842Z,24.31
2022-09-18T13:01:00.564Z,24.32
2022-09-18T13:03:30.149Z,24.30
2022-09-18T13:06:13.627Z,24.46
2022-09-18T13:08:49.344Z,24.54
2022-09-18T13:11:27.904Z,24.47
2022-09-18T13:13:57.240Z,24.25
2022-09-18T13:16:39.228Z,24.17
2022-09-18T13:19:07.609Z,24.14
2022-09-18T13:21:35.915Z,24.15
2022-09-18T13:24:02.636Z,23.89
2022-09-18T13:26:29.674Z,23.78
2022-09-18T13:28:56.239Z,23.61
2022-09-18T13:31:24.250Z,23.13
2022-09-18T13:34:07.622Z,23.15
2022-09-18T13:36:35.181Z,22.81
2022-09-18T13:39:18.401Z,22.74
2022-09-18T13:41:45.651Z,22.48
2022-09-18T13:44:31.531Z,22.40
2022-09-18T13:47:19.258Z,22.36
2022-09-18T13:49:49.650Z,22.23
2022-09-18T13:52:31.682Z,22.12
2022-09-18T13:55:01.920Z,21.88
2022-09-18T13:57:31.623Z,21.58
2022-09-18T13:59:59.181Z,20.96
2022-09-18T14:02:35.690Z,20.34
2022-09-18T14:05:05.928Z,20.33
2022-09-18T14:07:32.360Z,20.35
2022-09-18T14:10:03.651Z,20.30
2022-09-18T14:12:32.020Z,20.25
2022-09-18T14:15:01.800Z,20.14
2022-09-18T14:17:28.724Z,20.19
2022-09-18T14:20:09.219Z,19.99
2022-09-18T14:22:38.231Z,19.66
2022-09-18T14:25:07.219Z,19.93
2022-09-18T14:27:35.260Z,20.03
2022-09-18T14:30:14.699Z,20.12
2022-09-18T14:32:42.224Z,20.25
2022-09-18T14:35:29.044Z,20.39
2022-09-18T14:37:55.580Z,20.42
2022-09-18T14:40:22.891Z,20.44
2022-09-18T14:42:49.435Z,20.31
2022-09-18T14:45:20.717Z,20.24
2022-09-18T14:47:47.518Z,20.03
2022-09-18T14:50:37.527Z,20.05
2022-09-18T14:53:24.524Z,19.94
2022-09-18T14:55:52.271Z,19.55
2022-09-18T14:58:19.878Z,19.36
2022-09-18T15:00:46.357Z,19.44
2022-09-18T15:03:23.619Z,18.83
2022-09-18T15:05:51.913Z,19.07
2022-09-18T15:08:21.636Z,19.22
2022-09-18T15:10:51.088Z,18.95
2022-09-18T15:13:17.548Z,18.84
2022-09-18T15:15:47.292Z,18.83
2022-09-18T15:18:20.592Z,18.84
2022-09-18T15:20:49.409Z,18.79
2022-09-18T15:23:28.203Z,18.62
2022-09-18T15:25:55.523Z,18.59
2022-09-18T15:28:21.950Z,18.65
2022-09-18T15:30:49.916Z,18.59
2022-09-18T15:33:19.217Z,18.63
2022-09-18T15:35:46.993Z,18.80
2022-09-18T15:38:16.969Z,18.58
2022-09-18T15:40:43.738Z,18.54
2022-09-18T15:43:29.079Z,18.61
2022-09-18T15:46:02.569Z,18.62
2022-09-18T15:48:33.839Z,18.72
2022-09-18T15:51:12.816Z,18.63
2022-09-18T15:53:39.734Z,18.74
2022-09-18T15:56:09.815Z,18.73
2022-09-18T15:58:37.947Z,18.76
2022-09-18T16:01:05.003Z,18.78
2022-09-18T16:03:31.610Z,18.86
2022-09-18T16:06:02.638Z,18.84
2022-09-18T16:08:30.118Z,18.73
2022-09-18T16:10:56.883Z,18.81
2022-09-18T16:13:26.237Z,18.65
2022-09-18T16:16:14.493Z,18.69
2022-09-18T16:18:48.155Z,18.56
2022-09-18T16:21:14.611Z,18.57
2022-09-18T16:23:44.524Z,18.58
2022-09-18T16:26:15.426Z,18.42
2022-09-18T16:28:46.025Z,18.12
2022-09-18T16:31:13.337Z,18.22
2022-09-18T16:33:48.608Z,17.97
2022-09-18T16:36:34.338Z,18.09
2022-09-18T16:39:01.593Z,18.04
2022-09-18T16:41:28.697Z,17.74
2022-09-18T16:43:55.748Z,17.77
2022-09-18T16:46:23.945Z,17.74
2022-09-18T16:48:51.115Z,17.78
2022-09-18T16:51:17.599Z,17.72
2022-09-18T16:53:44.161Z,17.74
2022-09-18T16:56:12.266Z,17.65
2022-09-18T16:58:39.229Z,17.64
2022-09-18T17:01:05.793Z,17.47
2022-09-18T17:03:32.658Z,17.51
2022-09-18T17:05:59.579Z,17.45
2022-09-18T17:08:25.969Z,17.35
2022-09-18T17:10:52.495Z,17.34
2022-09-18T17:13:19.428Z,17.43
2022-09-18T17:15:45.880Z,17.37
2022-09-18T17:18:12.365Z,17.43
2022-09-18T17:20:38.801Z,17.39
2022-09-18T17:23:05.341Z,17.41
2022-09-18T17:25:31.979Z,17.41
2022-09-18T17:27:58.414Z,17.47
2022-09-18T17:30:25.625Z,17.47
2022-09-18T17:32:52.062Z,17.30
2022-09-18T17:35:18.789Z,17.25
2022-09-18T17:37:45.291Z,17.22
2022-09-18T17:40:11.796Z,17.25
2022-09-18T17:42:38.327Z,17.19
2022-09-18T17:45:05.102Z,17.14
2022-09-18T17:47:31.957Z,17.21
2022-09-18T17:49:58.617Z,17.20
2022-09-18T17:52:25.124Z,17.16
2022-09-18T17:54:51.618Z,17.10
2022-09-18T17:57:18.088Z,17.04
2022-09-18T17:59:44.608Z,16.93
2022-09-18T18:02:11.496Z,16.88
2022-09-18T18:04:38.204Z,17.06
2022-09-18T18:07:04.948Z,17.07
2022-09-18T18:09:31.375Z,17.09
2022-09-18T18:11:57.828Z,17.06
2022-09-18T18:14:29.122Z,17.03
2022-09-18T18:16:55.511Z,17.05
2022-09-18T18:19:22.025Z,17.20
2022-09-18T18:25:12.290Z,17.19
2022-09-18T18:27:38.734Z,17.22
2022-09-18T18:30:06.863Z,17.23
2022-09-18T18:32:34.885Z,17.30
2022-09-18T18:35:01.532Z,17.34
2022-09-18T18:37:27.943Z,17.31
2022-09-18T18:39:54.441Z,17.36
2022-09-18T18:42:23.562Z,17.31
2022-09-18T18:44:50.151Z,17.27
2022-09-18T18:47:20.287Z,17.35
2022-09-18T18:49:46.894Z,17.41
2022-09-18T18:52:13.441Z,17.32
2022-09-18T18:54:40.001Z,16.98
2022-09-18T18:57:06.504Z,17.16
2022-09-18T18:59:33.326Z,16.95
2022-09-18T19:02:00.009Z,17.04
2022-09-18T19:04:26.602Z,17.06
2022-09-18T19:06:55.786Z,16.97
2022-09-18T19:09:24.384Z,17.09
2022-09-18T19:11:51.776Z,17.02
2022-09-18T19:14:24.626Z,17.01
2022-09-18T19:16:51.186Z,16.90
2022-09-18T19:19:18.218Z,16.97
2022-09-18T19:21:44.681Z,17.06
2022-09-18T19:24:11.249Z,17.03
2022-09-18T19:26:38.199Z,17.10
2022-09-18T19:29:06.925Z,17.21
2022-09-18T19:31:33.779Z,17.17
2022-09-18T19:34:00.472Z,17.20
2022-09-18T19:36:27.744Z,17.19
2022-09-18T19:38:54.964Z,17.21
2022-09-18T19:41:25.533Z,17.16
2022-09-18T19:43:51.998Z,17.21
2022-09-18T19:46:28.288Z,17.29
2022-09-18T19:48:54.723Z,17.29
2022-09-18T19:51:21.191Z,17.25
2022-09-18T19:53:47.600Z,17.33
2022-09-18T19:56:32.984Z,17.30
2022-09-18T19:59:00.632Z,17.23
2022-09-18T20:01:27.038Z,17.34
2022-09-18T20:03:53.679Z,17.34
2022-09-18T20:06:20.231Z,17.42
2022-09-18T20:08:46.690Z,17.46
2022-09-18T20:11:13.147Z,17.54
2022-09-18T20:13:39.602Z,17.48
2022-09-18T20:16:07.002Z,17.43
2022-09-18T20:18:33.560Z,17.43
2022-09-18T20:21:04.084Z,17.41
2022-09-18T20:23:30.689Z,17.30
2022-09-18T20:25:57.108Z,17.16
2022-09-18T20:28:23.597Z,17.32
2022-09-18T20:30:50.071Z,17.27
2022-09-18T20:33:16.797Z,17.36
2022-09-18T20:35:47.912Z,17.37
2022-09-18T20:38:14.359Z,17.43
2022-09-18T20:40:42.233Z,17.39
2022-09-18T20:43:08.808Z,17.43
2022-09-18T20:45:35.938Z,17.39
2022-09-18T20:48:04.134Z,17.32
2022-09-18T20:50:30.558Z,17.20
2022-09-18T20:53:08.282Z,17.34
2022-09-18T20:55:36.217Z,17.33
2022-09-18T20:58:05.766Z,17.40
2022-09-18T21:00:32.505Z,17.45
2022-09-18T21:02:59.375Z,17.50
2022-09-18T21:05:27.209Z,17.55
2022-09-18T21:07:57.392Z,17.50
2022-09-18T21:10:24.270Z,17.47
2022-09-18T21:12:50.687Z,17.42
2022-09-18T21:15:17.338Z,17.47
2022-09-18T21:17:43.858Z,17.56
2022-09-18T21:20:10.259Z,17.54
2022-09-18T21:22:56.626Z,17.56
2022-09-18T21:25:24.732Z,17.62
2022-09-18T21:27:54.897Z,17.62
2022-09-18T21:30:22.295Z,17.60
2022-09-18T21:32:50.823Z,17.56
2022-09-18T21:35:20.172Z,17.59
2022-09-18T21:37:46.844Z,17.64
2022-09-18T21:40:13.611Z,17.71
2022-09-18T21:42:42.715Z,17.68
2022-09-18T21:45:09.289Z,17.68
2022-09-18T21:47:36.259Z,17.82
2022-09-18T21:50:03.015Z,17.81
2022-09-18T21:52:31.999Z,17.84
2022-09-18T21:54:58.464Z,17.86
2022-09-18T21:57:24.852Z,17.83
2022-09-18T21:59:51.238Z,17.83
2022-09-18T22:02:20.549Z,17.85
2022-09-18T22:04:46.982Z,17.86
2022-09-18T22:07:13.499Z,17.87
2022-09-18T22:09:39.971Z,17.87
2022-09-18T22:12:06.647Z,17.82
2022-09-18T22:14:33.350Z,17.88
2022-09-18T22:17:00.318Z,17.88
2022-09-18T22:19:26.849Z,17.80
2022-09-18T22:21:53.247Z,17.83
2022-09-18T22:24:20.925Z,17.82
2022-09-18T22:27:03.099Z,17.78
2022-09-18T22:29:30.402Z,17.75
2022-09-18T22:31:56.961Z,17.80
2022-09-18T22:34:24.265Z,17.80
2022-09-18T22:36:50.654Z,17.80
2022-09-18T22:39:17.343Z,17.85
2022-09-18T22:41:43.763Z,17.86
2022-09-18T22:44:10.466Z,17.90
2022-09-18T22:46:37.341Z,17.90
2022-09-18T22:49:04.091Z,17.84
2022-09-18T22:51:30.490Z,17.90
2022-09-18T22:53:58.118Z,17.85
2022-09-18T22:56:25.492Z,17.82
2022-09-18T22:58:52.174Z,17.83
2022-09-18T23:01:22.533Z,17.89
2022-09-18T23:03:49.311Z,17.89
2022-09-18T23:06:16.134Z,17.90
2022-09-18T23:08:42.942Z,17.91
2022-09-18T23:11:13.799Z,17.91
2022-09-18T23:13:40.861Z,17.92
2022-09-18T23:16:11.221Z,17.87
2022-09-18T23:18:40.590Z,17.79
2022-09-18T23:21:07.814Z,17.79
2022-09-18T23:23:34.972Z,17.78
2022-09-18T23:26:11.639Z,17.76
2022-09-18T23:28:38.941Z,17.72
2022-09-18T23:31:10.277Z,17.67
2022-09-18T23:33:37.148Z,17.37
2022-09-18T23:36:07.634Z,17.64
2022-09-18T23:38:34.072Z,17.60
2022-09-18T23:41:01.763Z,17.62
2022-09-18T23:43:28.480Z,17.46
2022-09-18T23:45:55.158Z,17.46
2022-09-18T23:48:21.547Z,17.50
2022-09-18T23:50:48.542Z,17.56
2022-09-18T23:53:14.966Z,17.52
2022-09-18T23:55:41.368Z,17.41
2022-09-18T23:58:08.379Z,17.40
